createdAt,value
2023-04-09T00:01:43.015Z,4.44
2023-04-09T00:11:45.917Z,4.39
2023-04-09T00:21:48.521Z,4.29
2023-04-09T00:31:51.229Z,4.26
2023-04-09T00:41:59.116Z,4.19
2023-04-09T00:52:01.750Z,4.18
2023-04-09T01:02:04.380Z,4.24
2023-04-09T01:12:17.812Z,4.32
2023-04-09T01:22:41.239Z,4.33
2023-04-09T01:32:44.228Z,4.30
2023-04-09T01:42:48.504Z,4.32
2023-04-09T01:52:51.145Z,4.27
2023-04-09T02:03:11.001Z,4.38
2023-04-09T02:13:17.594Z,4.39
2023-04-09T02:23:20.644Z,4.41
2023-04-09T02:33:23.160Z,4.32
2023-04-09T02:43:25.661Z,4.41
2023-04-09T02:53:28.226Z,4.18
2023-04-09T03:03:31.628Z,4.22
2023-04-09T03:13:34.096Z,4.22
2023-04-09T03:23:37.238Z,4.15
2023-04-09T03:33:42.267Z,4.18
2023-04-09T03:43:45.663Z,4.20
2023-04-09T03:53:50.701Z,4.16
2023-04-09T04:03:53.995Z,4.19
2023-04-09T04:13:59.373Z,4.09
2023-04-09T04:24:02.946Z,4.03
2023-04-09T04:34:06.152Z,4.00
2023-04-09T04:44:09.606Z,3.97
2023-04-09T04:54:12.740Z,4.04
2023-04-09T05:04:20.799Z,4.16
2023-04-09T05:14:24.177Z,4.25
2023-04-09T05:24:27.105Z,4.27
2023-04-09T05:34:30.280Z,4.28
2023-04-09T05:44:33.455Z,4.38
2023-04-09T05:54:47.280Z,4.42
2023-04-09T06:04:54.719Z,4.74
2023-04-09T06:14:57.415Z,4.83
2023-04-09T06:25:00.238Z,5.09
2023-04-09T06:35:02.729Z,5.13
2023-04-09T06:45:08.771Z,5.30
2023-04-09T06:55:11.623Z,5.37
2023-04-09T07:05:14.116Z,5.51
2023-04-09T07:15:16.672Z,5.48
2023-04-09T07:25:19.265Z,5.49
2023-04-09T07:35:22.088Z,5.50
2023-04-09T07:45:24.592Z,5.82
2023-04-09T07:55:27.128Z,6.23
2023-04-09T08:05:30.793Z,6.35
2023-04-09T08:15:33.472Z,6.58
2023-04-09T08:25:36.314Z,5.96
2023-04-09T08:35:40.483Z,6.13
2023-04-09T08:45:43.322Z,5.99
2023-04-09T08:55:46.666Z,6.39
2023-04-09T09:05:49.738Z,6.75
2023-04-09T09:15:57.873Z,6.73
2023-04-09T09:26:00.429Z,6.79
2023-04-09T09:36:06.036Z,6.46
2023-04-09T09:46:09.613Z,6.19
2023-04-09T09:56:21.720Z,6.43
2023-04-09T10:06:24.453Z,7.17
2023-04-09T10:16:28.201Z,7.92
2023-04-09T10:26:33.984Z,8.56
2023-04-09T10:36:36.540Z,8.73
2023-04-09T10:46:41.330Z,8.08
2023-04-09T10:57:09.698Z,8.86
2023-04-09T11:07:15.868Z,10.07
2023-04-09T11:17:19.740Z,11.02
2023-04-09T11:27:23.127Z,10.87
2023-04-09T11:37:27.186Z,8.85
2023-04-09T11:47:31.009Z,9.60
2023-04-09T11:57:47.279Z,11.51
2023-04-09T12:07:56.309Z,12.70
2023-04-09T12:18:00.401Z,12.92
2023-04-09T12:28:04.352Z,8.99
2023-04-09T12:38:06.923Z,7.38
2023-04-09T12:48:09.700Z,6.95
2023-04-09T12:58:12.376Z,6.47
2023-04-09T13:08:14.911Z,6.73
2023-04-09T13:18:17.396Z,7.15
2023-04-09T13:28:19.851Z,6.79
2023-04-09T13:38:22.353Z,6.90
2023-04-09T13:48:25.345Z,7.32
2023-04-09T13:58:27.852Z,7.83
2023-04-09T14:08:30.410Z,8.10
2023-04-09T14:18:32.942Z,9.75
2023-04-09T14:28:35.474Z,11.35
2023-04-09T14:38:38.050Z,11.40
2023-04-09T14:48:40.894Z,13.36
2023-04-09T14:58:43.373Z,14.39
2023-04-09T15:08:46.190Z,14.26
2023-04-09T15:18:51.466Z,13.73
2023-04-09T15:29:07.529Z,10.59
2023-04-09T15:39:11.483Z,8.65
2023-04-09T15:49:14.158Z,8.48
2023-04-09T15:59:18.934Z,10.05
2023-04-09T16:09:21.841Z,9.22
2023-04-09T16:19:25.142Z,7.17
2023-04-09T16:29:27.924Z,6.75
2023-04-09T16:39:30.463Z,6.57
2023-04-09T16:49:33.059Z,6.52
2023-04-09T16:59:35.685Z,6.21
2023-04-09T17:09:38.632Z,6.08
2023-04-09T17:19:42.818Z,5.82
2023-04-09T17:29:45.713Z,5.72
2023-04-09T17:39:48.162Z,5.62
2023-04-09T17:49:50.801Z,5.51
2023-04-09T17:59:53.318Z,5.42
2023-04-09T18:09:56.811Z,5.42
2023-04-09T18:19:59.544Z,5.31
2023-04-09T18:30:02.271Z,5.11
2023-04-09T18:40:06.871Z,4.82
2023-04-09T18:50:11.244Z,4.54
2023-04-09T19:00:14.457Z,4.35
2023-04-09T19:10:16.977Z,4.10
2023-04-09T19:20:19.735Z,3.91
2023-04-09T19:30:22.390Z,3.86
2023-04-09T19:40:25.060Z,3.66
2023-04-09T19:50:27.833Z,3.51
2023-04-09T20:00:31.162Z,3.43
2023-04-09T20:10:39.713Z,3.36
2023-04-09T20:20:42.277Z,3.16
2023-04-09T20:30:44.800Z,3.11
2023-04-09T20:40:47.326Z,2.86
2023-04-09T20:50:49.829Z,2.70
2023-04-09T21:00:52.441Z,2.54
2023-04-09T21:10:55.515Z,2.37
2023-04-09T21:20:58.098Z,2.23
2023-04-09T21:31:00.625Z,2.12
2023-04-09T21:41:03.124Z,1.83
2023-04-09T21:51:09.685Z,1.76
2023-04-09T22:01:26.121Z,1.55
2023-04-09T22:11:31.538Z,1.73
2023-04-09T22:21:34.349Z,1.67
2023-04-09T22:31:37.028Z,1.42
2023-04-09T22:41:39.602Z,1.38
2023-04-09T22:51:42.690Z,1.33
2023-04-09T23:01:45.707Z,1.27
2023-04-09T23:11:48.333Z,1.12
2023-04-09T23:21:50.832Z,1.23
2023-04-09T23:31:53.344Z,1.21
2023-04-09T23:41:56.328Z,0.91
2023-04-09T23:51:58.947Z,0.77
